Gustavus, AK

6:51 AM AKDT on August 30, 2014 (GMT -0800)
Gustavus | Change Station
CLOSE
Current Station
Airport
Location: Gustavus,
Elevation: 30 ft
Nearby Weather Stations

Elev 30 ft 58.43 °N, 135.71 °W | Updated 43 minutes ago

Overcast
Overcast
52 °F
Feels Like 52 °F
N
0
Wind Variable Wind from North

Today
High -- | Low -- °F
--% Chance of Precip.
Yesterday
High -- | Low -- °F
Precip. -- in
6:01 AM 8:13 PM
Waxing Crescent, 22% visible
Pressure 29.60 in
Visibility 4.0 miles
Clouds Overcast 300 ft
Dew Point 50 °F
Humidity 94%
Rainfall 0.00 in
Snow Depth Not available.
UV 0 out of 12
Pollen Not available.
Air Quality Not available.
Flu Activity Not available.
METAR PAGS 301408Z 00000KT 4SM OVC003 11/10 A2960 RMK VIA PHONE

More Conditions Fewer Conditions

Pressure 29.60 in
Visibility 4.0 miles
Clouds Overcast 300 ft
Dew Point 50 °F
Humidity 94%
Rainfall 0.00 in
Snow Depth Not available.
UV 0 out of 12
Pollen Not available.
Air Quality Not available.
Flu Activity Not available.
METAR PAGS 301408Z 00000KT 4SM OVC003 11/10 A2960 RMK VIA PHONE

More Conditions Fewer Conditions

10-Day Weather Forecast

Almanac

Astronomy

Aug. 30, 2014 Rise Set
Actual Time 6:01 AM AKDT 8:13 PM AKDT
Civil Twilight 5:18 AM AKDT 8:56 PM AKDT
Nautical Twilight 4:21 AM AKDT 9:52 PM AKDT
Astronomical Twilight 3:09 AM AKDT 11:03 PM AKDT
Moon 12:12 PM AKDT 9:33 PM AKDT
Length of Visible Light 15h 38m
Length of Day
14h 11m
Tomorrow will be 5m 6s shorter.
Waxing Crescent, 22% of the Moon is Illuminated
Today
Waxing Crescent
Sep 2
First Quarter
Sep 8
Full
Sep 15
Last Quarter
Sep 24
New

Today's Extremes

State Highs State Lows

Community

WunderPhotos

Upload Photos

1,748,528 photos uploaded!

WunderBlogs® & News

Nearby

Snow Depth

Station Depth Elevation
Long Lake 0 in 820 ft
Upper Tsaina River 0 in 1750 ft
Moraine 0 in 2100 ft
Grandview 0 in 1100 ft
Grouse Creek Divide 0 in 700 ft

Earthquake Activity

City Distance Mag. Time & Date
No recent earthquake activity has been reported nearby.
Minimum magnitude displayed is 2.5.

Coastal Water Temperatures

Place Temperature
No Stations Reporting

Nearby Weather Stations